Terminal Aerodrome Forecast
Issued by NWS

Home | Current Version | Previous Version | Text Only | Print | Product List | Glossary On
Versions: 1 2 3 4 5 6 7 8 9 10 11 12 13
300
FTUS45 KABQ 162340
TAFSAF
TAF
KSAF 162340Z 1700/1724 25009KT P6SM SCT250
     FM170100 34006KT P6SM BKN200
     FM171300 01009KT P6SM BKN120
     FM172000 22006KT P6SM BKN100=

USA.gov is the U.S. government's official web portal to all federal, state and local government web resources and services.